sensor_id;sensor_type;location;lat;lon;timestamp;temperature;humidity
35246;DHT22;21379;50.962;6.960;2022-12-26T00:01:35;13.40;99.90
35246;DHT22;21379;50.962;6.960;2022-12-26T00:04:03;13.40;99.90
35246;DHT22;21379;50.962;6.960;2022-12-26T00:06:31;13.30;99.90
35246;DHT22;21379;50.962;6.960;2022-12-26T00:09:00;13.20;99.90
35246;DHT22;21379;50.962;6.960;2022-12-26T00:11:27;13.20;99.90
35246;DHT22;21379;50.962;6.960;2022-12-26T00:13:55;13.20;99.90
35246;DHT22;21379;50.962;6.960;2022-12-26T00:16:23;13.20;99.90
35246;DHT22;21379;50.962;6.960;2022-12-26T00:18:51;13.30;99.90
35246;DHT22;21379;50.962;6.960;2022-12-26T00:21:18;13.20;99.90
35246;DHT22;21379;50.962;6.960;2022-12-26T00:23:47;13.10;99.90
35246;DHT22;21379;50.962;6.960;2022-12-26T00:26:16;13.10;99.90
35246;DHT22;21379;50.962;6.960;2022-12-26T00:28:44;13.10;99.90
35246;DHT22;21379;50.962;6.960;2022-12-26T00:31:13;13.10;99.90
35246;DHT22;21379;50.962;6.960;2022-12-26T00:33:41;13.10;99.90
35246;DHT22;21379;50.962;6.960;2022-12-26T00:36:10;13.10;99.90
35246;DHT22;21379;50.962;6.960;2022-12-26T00:38:39;13.10;99.90
35246;DHT22;21379;50.962;6.960;2022-12-26T00:41:09;13.30;99.90
35246;DHT22;21379;50.962;6.960;2022-12-26T00:43:36;13.30;99.90
35246;DHT22;21379;50.962;6.960;2022-12-26T00:46:03;13.20;99.90
35246;DHT22;21379;50.962;6.960;2022-12-26T00:48:30;13.10;99.90
35246;DHT22;21379;50.962;6.960;2022-12-26T00:50:58;13.10;99.90
35246;DHT22;21379;50.962;6.960;2022-12-26T00:53:25;13.00;99.90
35246;DHT22;21379;50.962;6.960;2022-12-26T00:55:52;13.00;99.90
35246;DHT22;21379;50.962;6.960;2022-12-26T00:58:21;13.00;99.90
35246;DHT22;21379;50.962;6.960;2022-12-26T01:00:48;12.90;99.90
35246;DHT22;21379;50.962;6.960;2022-12-26T01:03:16;13.00;99.90
35246;DHT22;21379;50.962;6.960;2022-12-26T01:05:44;13.00;99.90
35246;DHT22;21379;50.962;6.960;2022-12-26T01:08:11;13.00;99.90
35246;DHT22;21379;50.962;6.960;2022-12-26T01:10:39;13.00;99.90
35246;DHT22;21379;50.962;6.960;2022-12-26T01:13:06;12.90;99.90
35246;DHT22;21379;50.962;6.960;2022-12-26T01:15:34;12.80;99.90
35246;DHT22;21379;50.962;6.960;2022-12-26T01:18:01;12.90;99.90
35246;DHT22;21379;50.962;6.960;2022-12-26T01:20:28;12.90;99.90
35246;DHT22;21379;50.962;6.960;2022-12-26T01:22:55;12.90;99.90
35246;DHT22;21379;50.962;6.960;2022-12-26T01:25:22;12.90;99.90
35246;DHT22;21379;50.962;6.960;2022-12-26T01:27:49;12.90;99.90
35246;DHT22;21379;50.962;6.960;2022-12-26T01:30:17;12.90;99.90
35246;DHT22;21379;50.962;6.960;2022-12-26T01:32:45;12.90;99.90
35246;DHT22;21379;50.962;6.960;2022-12-26T01:35:12;12.90;99.90
35246;DHT22;21379;50.962;6.960;2022-12-26T01:37:39;13.00;99.90
35246;DHT22;21379;50.962;6.960;2022-12-26T01:40:06;13.10;99.90
35246;DHT22;21379;50.962;6.960;2022-12-26T01:42:36;13.10;99.90
35246;DHT22;21379;50.962;6.960;2022-12-26T01:45:05;13.10;99.90
35246;DHT22;21379;50.962;6.960;2022-12-26T01:47:40;13.20;99.90
35246;DHT22;21379;50.962;6.960;2022-12-26T01:50:20;13.30;99.90
35246;DHT22;21379;50.962;6.960;2022-12-26T01:52:51;13.30;99.90
35246;DHT22;21379;50.962;6.960;2022-12-26T01:55:20;13.20;99.90
35246;DHT22;21379;50.962;6.960;2022-12-26T01:57:51;13.20;99.90
35246;DHT22;21379;50.962;6.960;2022-12-26T02:00:19;13.30;99.90
35246;DHT22;21379;50.962;6.960;2022-12-26T02:02:46;13.20;99.90
35246;DHT22;21379;50.962;6.960;2022-12-26T02:05:33;13.20;99.90
35246;DHT22;21379;50.962;6.960;2022-12-26T02:08:00;13.30;99.90
35246;DHT22;21379;50.962;6.960;2022-12-26T02:10:30;13.20;99.90
35246;DHT22;21379;50.962;6.960;2022-12-26T02:12:59;13.20;99.90
35246;DHT22;21379;50.962;6.960;2022-12-26T02:15:26;13.20;99.90
35246;DHT22;21379;50.962;6.960;2022-12-26T02:17:54;13.20;99.90
35246;DHT22;21379;50.962;6.960;2022-12-26T02:20:22;13.30;99.90
35246;DHT22;21379;50.962;6.960;2022-12-26T02:26:22;13.20;99.90
35246;DHT22;21379;50.962;6.960;2022-12-26T02:29:21;13.20;99.90
35246;DHT22;21379;50.962;6.960;2022-12-26T02:32:01;13.20;99.90
35246;DHT22;21379;50.962;6.960;2022-12-26T02:34:35;13.20;99.90
35246;DHT22;21379;50.962;6.960;2022-12-26T02:37:13;13.20;99.90
35246;DHT22;21379;50.962;6.960;2022-12-26T02:39:55;13.10;99.90
35246;DHT22;21379;50.962;6.960;2022-12-26T02:42:32;13.10;99.90
35246;DHT22;21379;50.962;6.960;2022-12-26T02:45:07;13.10;99.90
35246;DHT22;21379;50.962;6.960;2022-12-26T02:47:58;13.10;99.90
35246;DHT22;21379;50.962;6.960;2022-12-26T02:50:32;13.20;99.90
35246;DHT22;21379;50.962;6.960;2022-12-26T02:53:22;13.10;99.90
35246;DHT22;21379;50.962;6.960;2022-12-26T02:56:14;13.10;99.90
35246;DHT22;21379;50.962;6.960;2022-12-26T02:59:05;13.20;99.90
35246;DHT22;21379;50.962;6.960;2022-12-26T03:01:56;13.10;99.90
35246;DHT22;21379;50.962;6.960;2022-12-26T03:04:48;13.10;99.90
35246;DHT22;21379;50.962;6.960;2022-12-26T03:07:45;13.00;99.90
35246;DHT22;21379;50.962;6.960;2022-12-26T03:10:41;12.90;99.90
35246;DHT22;21379;50.962;6.960;2022-12-26T03:13:30;12.90;99.90
35246;DHT22;21379;50.962;6.960;2022-12-26T03:16:01;12.90;99.90
35246;DHT22;21379;50.962;6.960;2022-12-26T03:18:49;12.90;99.90
35246;DHT22;21379;50.962;6.960;2022-12-26T03:21:22;12.80;99.90
35246;DHT22;21379;50.962;6.960;2022-12-26T03:23:52;12.80;99.90
35246;DHT22;21379;50.962;6.960;2022-12-26T03:26:23;12.90;99.90
35246;DHT22;21379;50.962;6.960;2022-12-26T03:29:08;12.90;99.90
35246;DHT22;21379;50.962;6.960;2022-12-26T03:31:53;12.80;99.90
35246;DHT22;21379;50.962;6.960;2022-12-26T03:34:21;12.80;99.90
35246;DHT22;21379;50.962;6.960;2022-12-26T03:39:48;12.70;99.90
35246;DHT22;21379;50.962;6.960;2022-12-26T03:42:42;12.60;99.90
35246;DHT22;21379;50.962;6.960;2022-12-26T03:45:36;12.60;99.90
35246;DHT22;21379;50.962;6.960;2022-12-26T03:48:28;12.60;99.90
35246;DHT22;21379;50.962;6.960;2022-12-26T03:51:26;12.60;99.90
35246;DHT22;21379;50.962;6.960;2022-12-26T03:54:16;12.70;99.90
35246;DHT22;21379;50.962;6.960;2022-12-26T03:57:20;12.60;99.90
35246;DHT22;21379;50.962;6.960;2022-12-26T04:00:09;12.60;99.90
35246;DHT22;21379;50.962;6.960;2022-12-26T04:02:59;12.60;99.90
35246;DHT22;21379;50.962;6.960;2022-12-26T04:05:47;12.60;99.90
35246;DHT22;21379;50.962;6.960;2022-12-26T04:08:39;12.50;99.90
35246;DHT22;21379;50.962;6.960;2022-12-26T04:11:27;12.50;99.90
35246;DHT22;21379;50.962;6.960;2022-12-26T04:14:19;12.50;99.90
35246;DHT22;21379;50.962;6.960;2022-12-26T04:17:11;12.40;99.90
35246;DHT22;21379;50.962;6.960;2022-12-26T04:20:01;12.40;99.90
35246;DHT22;21379;50.962;6.960;2022-12-26T04:22:38;12.40;99.90
35246;DHT22;21379;50.962;6.960;2022-12-26T04:25:26;12.30;99.90
35246;DHT22;21379;50.962;6.960;2022-12-26T04:28:13;12.30;99.90
35246;DHT22;21379;50.962;6.960;2022-12-26T04:30:59;12.20;99.90
35246;DHT22;21379;50.962;6.960;2022-12-26T04:33:49;12.20;99.90
35246;DHT22;21379;50.962;6.960;2022-12-26T04:36:41;12.10;99.90
35246;DHT22;21379;50.962;6.960;2022-12-26T04:39:29;12.10;99.90
35246;DHT22;21379;50.962;6.960;2022-12-26T04:42:15;12.10;99.90
35246;DHT22;21379;50.962;6.960;2022-12-26T04:45:02;12.10;99.90
35246;DHT22;21379;50.962;6.960;2022-12-26T04:47:29;12.00;99.90
35246;DHT22;21379;50.962;6.960;2022-12-26T04:49:56;11.90;99.90
35246;DHT22;21379;50.962;6.960;2022-12-26T04:52:38;11.90;99.90
35246;DHT22;21379;50.962;6.960;2022-12-26T04:55:23;11.90;99.90
35246;DHT22;21379;50.962;6.960;2022-12-26T04:57:50;11.90;99.90
35246;DHT22;21379;50.962;6.960;2022-12-26T05:00:18;11.90;99.90
35246;DHT22;21379;50.962;6.960;2022-12-26T05:02:45;11.90;99.90
35246;DHT22;21379;50.962;6.960;2022-12-26T05:05:31;11.90;99.90
35246;DHT22;21379;50.962;6.960;2022-12-26T05:08:36;11.80;99.90
35246;DHT22;21379;50.962;6.960;2022-12-26T05:11:21;11.80;99.90
35246;DHT22;21379;50.962;6.960;2022-12-26T05:13:49;11.70;99.90
35246;DHT22;21379;50.962;6.960;2022-12-26T05:16:18;11.70;99.90
35246;DHT22;21379;50.962;6.960;2022-12-26T05:19:02;11.70;99.90
35246;DHT22;21379;50.962;6.960;2022-12-26T05:21:46;11.70;99.90
35246;DHT22;21379;50.962;6.960;2022-12-26T05:24:33;11.60;99.90
35246;DHT22;21379;50.962;6.960;2022-12-26T05:27:18;11.70;99.90
35246;DHT22;21379;50.962;6.960;2022-12-26T05:30:04;11.70;99.90
35246;DHT22;21379;50.962;6.960;2022-12-26T05:32:33;11.70;99.90
35246;DHT22;21379;50.962;6.960;2022-12-26T05:35:17;11.60;99.90
35246;DHT22;21379;50.962;6.960;2022-12-26T05:37:44;11.50;99.90
35246;DHT22;21379;50.962;6.960;2022-12-26T05:40:11;11.50;99.90
35246;DHT22;21379;50.962;6.960;2022-12-26T05:42:38;11.50;99.90
35246;DHT22;21379;50.962;6.960;2022-12-26T05:45:05;11.30;99.90
35246;DHT22;21379;50.962;6.960;2022-12-26T05:47:34;11.30;99.90
35246;DHT22;21379;50.962;6.960;2022-12-26T05:50:00;11.30;99.90
35246;DHT22;21379;50.962;6.960;2022-12-26T05:52:27;11.20;99.90
35246;DHT22;21379;50.962;6.960;2022-12-26T05:54:54;11.10;99.90
35246;DHT22;21379;50.962;6.960;2022-12-26T05:57:21;11.00;99.90
35246;DHT22;21379;50.962;6.960;2022-12-26T05:59:48;11.00;99.90
35246;DHT22;21379;50.962;6.960;2022-12-26T06:02:14;11.00;99.90
35246;DHT22;21379;50.962;6.960;2022-12-26T06:04:43;10.90;99.90
35246;DHT22;21379;50.962;6.960;2022-12-26T06:07:09;10.90;99.90
35246;DHT22;21379;50.962;6.960;2022-12-26T06:09:36;10.90;99.90
35246;DHT22;21379;50.962;6.960;2022-12-26T06:12:03;10.90;99.90
35246;DHT22;21379;50.962;6.960;2022-12-26T06:14:30;10.90;99.90
35246;DHT22;21379;50.962;6.960;2022-12-26T06:16:57;10.80;99.90
35246;DHT22;21379;50.962;6.960;2022-12-26T06:19:24;10.80;99.90
35246;DHT22;21379;50.962;6.960;2022-12-26T06:21:52;10.80;99.90
35246;DHT22;21379;50.962;6.960;2022-12-26T06:24:19;10.80;99.90
35246;DHT22;21379;50.962;6.960;2022-12-26T06:26:45;10.80;99.90
35246;DHT22;21379;50.962;6.960;2022-12-26T06:29:14;10.80;99.90
35246;DHT22;21379;50.962;6.960;2022-12-26T06:31:40;10.80;99.90
35246;DHT22;21379;50.962;6.960;2022-12-26T06:34:10;10.80;99.90
35246;DHT22;21379;50.962;6.960;2022-12-26T06:36:38;10.80;99.90
35246;DHT22;21379;50.962;6.960;2022-12-26T06:39:06;10.80;99.90
35246;DHT22;21379;50.962;6.960;2022-12-26T06:41:32;10.80;99.90
35246;DHT22;21379;50.962;6.960;2022-12-26T06:43:59;10.80;99.90
35246;DHT22;21379;50.962;6.960;2022-12-26T06:46:26;10.80;99.90
35246;DHT22;21379;50.962;6.960;2022-12-26T06:48:53;10.80;99.90
35246;DHT22;21379;50.962;6.960;2022-12-26T06:51:21;10.80;99.90
35246;DHT22;21379;50.962;6.960;2022-12-26T06:53:49;10.80;99.90
35246;DHT22;21379;50.962;6.960;2022-12-26T06:56:19;10.70;99.90
35246;DHT22;21379;50.962;6.960;2022-12-26T06:58:46;10.80;99.90
35246;DHT22;21379;50.962;6.960;2022-12-26T07:01:16;10.80;99.90
35246;DHT22;21379;50.962;6.960;2022-12-26T07:03:45;10.80;99.90
35246;DHT22;21379;50.962;6.960;2022-12-26T07:06:18;10.80;99.90
35246;DHT22;21379;50.962;6.960;2022-12-26T07:08:46;10.80;99.90
35246;DHT22;21379;50.962;6.960;2022-12-26T07:11:13;10.80;99.90
35246;DHT22;21379;50.962;6.960;2022-12-26T07:13:42;10.80;99.90
35246;DHT22;21379;50.962;6.960;2022-12-26T07:16:09;10.70;99.90
35246;DHT22;21379;50.962;6.960;2022-12-26T07:18:36;10.80;99.90
35246;DHT22;21379;50.962;6.960;2022-12-26T07:21:04;10.80;99.90
35246;DHT22;21379;50.962;6.960;2022-12-26T07:23:31;10.70;99.90
35246;DHT22;21379;50.962;6.960;2022-12-26T07:25:57;10.80;99.90
35246;DHT22;21379;50.962;6.960;2022-12-26T07:28:24;10.80;99.90
35246;DHT22;21379;50.962;6.960;2022-12-26T07:30:53;10.80;99.90
35246;DHT22;21379;50.962;6.960;2022-12-26T07:33:22;10.80;99.90
35246;DHT22;21379;50.962;6.960;2022-12-26T07:35:49;10.80;99.90
35246;DHT22;21379;50.962;6.960;2022-12-26T07:38:16;10.80;99.90
35246;DHT22;21379;50.962;6.960;2022-12-26T07:40:43;10.80;99.90
35246;DHT22;21379;50.962;6.960;2022-12-26T07:43:10;10.80;99.90
35246;DHT22;21379;50.962;6.960;2022-12-26T07:45:37;10.80;99.90
35246;DHT22;21379;50.962;6.960;2022-12-26T07:48:05;10.80;99.90
35246;DHT22;21379;50.962;6.960;2022-12-26T07:50:32;10.70;99.90
35246;DHT22;21379;50.962;6.960;2022-12-26T07:52:59;10.70;99.90
35246;DHT22;21379;50.962;6.960;2022-12-26T07:55:26;10.70;99.90
35246;DHT22;21379;50.962;6.960;2022-12-26T07:57:53;10.70;99.90
35246;DHT22;21379;50.962;6.960;2022-12-26T08:00:21;10.60;99.90
35246;DHT22;21379;50.962;6.960;2022-12-26T08:02:49;10.60;99.90
35246;DHT22;21379;50.962;6.960;2022-12-26T08:05:18;10.60;99.90
35246;DHT22;21379;50.962;6.960;2022-12-26T08:07:46;10.60;99.90
35246;DHT22;21379;50.962;6.960;2022-12-26T08:10:13;10.50;99.90
35246;DHT22;21379;50.962;6.960;2022-12-26T08:12:40;10.50;99.90
35246;DHT22;21379;50.962;6.960;2022-12-26T08:15:08;10.50;99.90
35246;DHT22;21379;50.962;6.960;2022-12-26T08:17:36;10.40;99.90
35246;DHT22;21379;50.962;6.960;2022-12-26T08:20:04;10.40;99.90
35246;DHT22;21379;50.962;6.960;2022-12-26T08:22:32;10.30;99.90
35246;DHT22;21379;50.962;6.960;2022-12-26T08:24:59;10.30;99.90
35246;DHT22;21379;50.962;6.960;2022-12-26T08:27:26;10.20;99.90
35246;DHT22;21379;50.962;6.960;2022-12-26T08:29:53;10.30;99.90
35246;DHT22;21379;50.962;6.960;2022-12-26T08:32:20;10.20;99.90
35246;DHT22;21379;50.962;6.960;2022-12-26T08:34:46;10.20;99.90
35246;DHT22;21379;50.962;6.960;2022-12-26T08:37:13;10.20;99.90
35246;DHT22;21379;50.962;6.960;2022-12-26T08:39:41;10.30;99.90
35246;DHT22;21379;50.962;6.960;2022-12-26T08:42:08;10.30;99.90
35246;DHT22;21379;50.962;6.960;2022-12-26T08:44:39;10.30;99.90
35246;DHT22;21379;50.962;6.960;2022-12-26T08:47:06;10.30;99.90
35246;DHT22;21379;50.962;6.960;2022-12-26T08:49:33;10.30;99.90
35246;DHT22;21379;50.962;6.960;2022-12-26T08:52:00;10.40;99.90
35246;DHT22;21379;50.962;6.960;2022-12-26T08:54:27;10.40;99.90
35246;DHT22;21379;50.962;6.960;2022-12-26T08:56:55;10.50;99.90
35246;DHT22;21379;50.962;6.960;2022-12-26T08:59:22;10.50;99.90
35246;DHT22;21379;50.962;6.960;2022-12-26T09:01:49;10.60;99.90
35246;DHT22;21379;50.962;6.960;2022-12-26T09:04:16;10.70;99.90
35246;DHT22;21379;50.962;6.960;2022-12-26T09:06:43;10.70;99.90
35246;DHT22;21379;50.962;6.960;2022-12-26T09:09:10;10.70;99.90
35246;DHT22;21379;50.962;6.960;2022-12-26T09:11:38;10.70;99.90
35246;DHT22;21379;50.962;6.960;2022-12-26T09:14:07;10.80;99.90
35246;DHT22;21379;50.962;6.960;2022-12-26T09:16:37;10.80;99.90
35246;DHT22;21379;50.962;6.960;2022-12-26T09:19:09;10.80;99.90
35246;DHT22;21379;50.962;6.960;2022-12-26T09:21:37;10.90;99.90
35246;DHT22;21379;50.962;6.960;2022-12-26T09:24:05;11.00;99.90
35246;DHT22;21379;50.962;6.960;2022-12-26T09:26:32;11.00;99.90
35246;DHT22;21379;50.962;6.960;2022-12-26T09:28:59;11.10;99.90
35246;DHT22;21379;50.962;6.960;2022-12-26T09:31:28;11.10;99.90
35246;DHT22;21379;50.962;6.960;2022-12-26T09:33:55;11.20;99.90
35246;DHT22;21379;50.962;6.960;2022-12-26T09:36:24;11.20;99.90
35246;DHT22;21379;50.962;6.960;2022-12-26T09:38:52;11.20;99.90
35246;DHT22;21379;50.962;6.960;2022-12-26T09:41:34;11.20;99.90
35246;DHT22;21379;50.962;6.960;2022-12-26T09:44:05;11.20;99.90
35246;DHT22;21379;50.962;6.960;2022-12-26T09:46:39;11.20;99.90
35246;DHT22;21379;50.962;6.960;2022-12-26T09:49:11;11.30;99.90
35246;DHT22;21379;50.962;6.960;2022-12-26T09:51:42;11.30;99.90
35246;DHT22;21379;50.962;6.960;2022-12-26T09:54:16;11.30;99.90
35246;DHT22;21379;50.962;6.960;2022-12-26T09:56:45;11.40;99.90
35246;DHT22;21379;50.962;6.960;2022-12-26T09:59:14;11.50;99.90
35246;DHT22;21379;50.962;6.960;2022-12-26T10:01:43;11.50;99.90
35246;DHT22;21379;50.962;6.960;2022-12-26T10:04:18;11.50;99.90
35246;DHT22;21379;50.962;6.960;2022-12-26T10:06:49;11.50;99.90
35246;DHT22;21379;50.962;6.960;2022-12-26T10:09:39;11.50;99.90
35246;DHT22;21379;50.962;6.960;2022-12-26T10:12:18;11.60;99.90
35246;DHT22;21379;50.962;6.960;2022-12-26T10:14:53;11.50;99.90
35246;DHT22;21379;50.962;6.960;2022-12-26T10:17:27;11.60;99.90
35246;DHT22;21379;50.962;6.960;2022-12-26T10:20:18;11.60;99.90
35246;DHT22;21379;50.962;6.960;2022-12-26T10:23:12;11.70;99.90
35246;DHT22;21379;50.962;6.960;2022-12-26T10:25:46;11.70;99.90
35246;DHT22;21379;50.962;6.960;2022-12-26T10:28:17;11.70;99.90
35246;DHT22;21379;50.962;6.960;2022-12-26T10:30:45;11.70;99.90
35246;DHT22;21379;50.962;6.960;2022-12-26T10:33:19;11.70;99.90
35246;DHT22;21379;50.962;6.960;2022-12-26T10:35:48;11.70;99.90
35246;DHT22;21379;50.962;6.960;2022-12-26T10:38:28;11.70;99.90
35246;DHT22;21379;50.962;6.960;2022-12-26T10:41:02;11.80;99.90
35246;DHT22;21379;50.962;6.960;2022-12-26T10:43:32;11.80;99.90
35246;DHT22;21379;50.962;6.960;2022-12-26T10:46:17;11.80;99.90
35246;DHT22;21379;50.962;6.960;2022-12-26T10:48:49;11.80;99.90
35246;DHT22;21379;50.962;6.960;2022-12-26T10:51:16;11.70;99.90
35246;DHT22;21379;50.962;6.960;2022-12-26T10:53:47;11.70;99.90
35246;DHT22;21379;50.962;6.960;2022-12-26T10:56:15;11.70;99.90
35246;DHT22;21379;50.962;6.960;2022-12-26T10:58:43;11.80;99.90
35246;DHT22;21379;50.962;6.960;2022-12-26T11:01:30;11.90;99.90
35246;DHT22;21379;50.962;6.960;2022-12-26T11:04:01;11.90;99.90
35246;DHT22;21379;50.962;6.960;2022-12-26T11:06:31;12.00;99.90
35246;DHT22;21379;50.962;6.960;2022-12-26T11:08:59;12.00;99.90
35246;DHT22;21379;50.962;6.960;2022-12-26T11:11:27;12.00;99.90
35246;DHT22;21379;50.962;6.960;2022-12-26T11:14:26;12.00;99.90
35246;DHT22;21379;50.962;6.960;2022-12-26T11:16:55;12.10;99.90
35246;DHT22;21379;50.962;6.960;2022-12-26T11:19:29;12.20;99.90
35246;DHT22;21379;50.962;6.960;2022-12-26T11:22:25;12.20;99.90
35246;DHT22;21379;50.962;6.960;2022-12-26T11:25:17;12.30;99.90
35246;DHT22;21379;50.962;6.960;2022-12-26T11:27:45;12.30;99.90
35246;DHT22;21379;50.962;6.960;2022-12-26T11:30:23;12.20;99.90
35246;DHT22;21379;50.962;6.960;2022-12-26T11:33:02;12.20;99.90
35246;DHT22;21379;50.962;6.960;2022-12-26T11:35:31;12.30;99.90
35246;DHT22;21379;50.962;6.960;2022-12-26T11:38:03;12.30;99.90
35246;DHT22;21379;50.962;6.960;2022-12-26T11:40:34;12.40;99.90
35246;DHT22;21379;50.962;6.960;2022-12-26T11:43:04;12.40;99.90
35246;DHT22;21379;50.962;6.960;2022-12-26T11:45:39;12.50;99.90
35246;DHT22;21379;50.962;6.960;2022-12-26T11:48:18;12.50;99.90
35246;DHT22;21379;50.962;6.960;2022-12-26T11:50:48;12.40;99.90
35246;DHT22;21379;50.962;6.960;2022-12-26T11:53:17;12.40;99.90
35246;DHT22;21379;50.962;6.960;2022-12-26T11:55:57;12.40;99.90
35246;DHT22;21379;50.962;6.960;2022-12-26T11:58:26;12.50;99.90
35246;DHT22;21379;50.962;6.960;2022-12-26T12:01:10;12.60;99.90
35246;DHT22;21379;50.962;6.960;2022-12-26T12:03:40;12.70;99.90
35246;DHT22;21379;50.962;6.960;2022-12-26T12:06:28;12.70;99.90
35246;DHT22;21379;50.962;6.960;2022-12-26T12:09:05;12.60;99.90
35246;DHT22;21379;50.962;6.960;2022-12-26T12:11:43;12.50;99.90
35246;DHT22;21379;50.962;6.960;2022-12-26T12:14:27;12.50;99.90
35246;DHT22;21379;50.962;6.960;2022-12-26T12:17:03;12.50;99.90
35246;DHT22;21379;50.962;6.960;2022-12-26T12:19:43;12.40;99.90
35246;DHT22;21379;50.962;6.960;2022-12-26T12:25:38;12.40;99.90
35246;DHT22;21379;50.962;6.960;2022-12-26T12:28:18;12.20;99.90
35246;DHT22;21379;50.962;6.960;2022-12-26T12:30:56;12.20;99.90
35246;DHT22;21379;50.962;6.960;2022-12-26T12:33:38;12.20;99.90
35246;DHT22;21379;50.962;6.960;2022-12-26T12:36:09;12.20;99.90
35246;DHT22;21379;50.962;6.960;2022-12-26T12:39:04;12.10;99.90
35246;DHT22;21379;50.962;6.960;2022-12-26T12:42:02;12.10;99.90
35246;DHT22;21379;50.962;6.960;2022-12-26T12:44:46;12.00;99.90
35246;DHT22;21379;50.962;6.960;2022-12-26T12:47:22;12.00;99.90
35246;DHT22;21379;50.962;6.960;2022-12-26T12:49:57;12.00;99.90
35246;DHT22;21379;50.962;6.960;2022-12-26T12:52:42;12.00;99.90
35246;DHT22;21379;50.962;6.960;2022-12-26T12:55:41;12.00;99.90
35246;DHT22;21379;50.962;6.960;2022-12-26T12:58:17;12.00;99.90
35246;DHT22;21379;50.962;6.960;2022-12-26T13:00:53;12.00;99.90
35246;DHT22;21379;50.962;6.960;2022-12-26T13:03:26;12.10;99.90
35246;DHT22;21379;50.962;6.960;2022-12-26T13:05:59;12.10;99.90
35246;DHT22;21379;50.962;6.960;2022-12-26T13:08:31;12.00;99.90
35246;DHT22;21379;50.962;6.960;2022-12-26T13:11:06;12.10;99.90
35246;DHT22;21379;50.962;6.960;2022-12-26T13:13:37;12.00;99.90
35246;DHT22;21379;50.962;6.960;2022-12-26T13:16:10;11.90;99.90
35246;DHT22;21379;50.962;6.960;2022-12-26T13:18:44;12.00;99.90
35246;DHT22;21379;50.962;6.960;2022-12-26T13:21:14;11.90;99.90
35246;DHT22;21379;50.962;6.960;2022-12-26T13:23:43;11.90;99.90
35246;DHT22;21379;50.962;6.960;2022-12-26T13:26:47;11.80;99.90
35246;DHT22;21379;50.962;6.960;2022-12-26T13:29:17;11.90;99.90
35246;DHT22;21379;50.962;6.960;2022-12-26T13:31:45;11.80;99.90
35246;DHT22;21379;50.962;6.960;2022-12-26T13:34:15;11.70;99.90
35246;DHT22;21379;50.962;6.960;2022-12-26T13:36:44;11.40;99.90
35246;DHT22;21379;50.962;6.960;2022-12-26T13:39:34;11.30;99.90
35246;DHT22;21379;50.962;6.960;2022-12-26T13:42:17;11.10;99.90
35246;DHT22;21379;50.962;6.960;2022-12-26T13:48:45;10.80;99.90
35246;DHT22;21379;50.962;6.960;2022-12-26T13:54:33;10.50;99.90
35246;DHT22;21379;50.962;6.960;2022-12-26T13:57:30;10.50;99.90
35246;DHT22;21379;50.962;6.960;2022-12-26T14:00:07;10.40;99.90
35246;DHT22;21379;50.962;6.960;2022-12-26T14:05:39;10.30;99.90
35246;DHT22;21379;50.962;6.960;2022-12-26T14:08:15;10.30;99.90
35246;DHT22;21379;50.962;6.960;2022-12-26T14:10:55;10.30;99.90
35246;DHT22;21379;50.962;6.960;2022-12-26T14:13:40;10.30;99.90
35246;DHT22;21379;50.962;6.960;2022-12-26T14:16:17;10.30;99.90
35246;DHT22;21379;50.962;6.960;2022-12-26T14:18:48;10.30;99.90
35246;DHT22;21379;50.962;6.960;2022-12-26T14:21:32;10.10;99.90
35246;DHT22;21379;50.962;6.960;2022-12-26T14:24:09;10.10;99.90
35246;DHT22;21379;50.962;6.960;2022-12-26T14:26:47;10.00;99.90
35246;DHT22;21379;50.962;6.960;2022-12-26T14:29:21;9.90;99.90
35246;DHT22;21379;50.962;6.960;2022-12-26T14:32:09;9.90;99.90
35246;DHT22;21379;50.962;6.960;2022-12-26T14:34:59;9.80;99.90
35246;DHT22;21379;50.962;6.960;2022-12-26T14:37:36;9.70;99.90
35246;DHT22;21379;50.962;6.960;2022-12-26T14:40:24;9.60;99.90
35246;DHT22;21379;50.962;6.960;2022-12-26T14:43:02;9.60;99.90
35246;DHT22;21379;50.962;6.960;2022-12-26T14:45:42;9.60;99.90
35246;DHT22;21379;50.962;6.960;2022-12-26T14:48:38;9.60;99.90
35246;DHT22;21379;50.962;6.960;2022-12-26T14:51:28;9.50;99.90
35246;DHT22;21379;50.962;6.960;2022-12-26T14:57:38;9.50;99.90
35246;DHT22;21379;50.962;6.960;2022-12-26T15:00:31;9.40;99.90
35246;DHT22;21379;50.962;6.960;2022-12-26T15:03:36;9.40;99.90
35246;DHT22;21379;50.962;6.960;2022-12-26T15:06:50;9.40;99.90
35246;DHT22;21379;50.962;6.960;2022-12-26T15:12:59;9.30;99.90
35246;DHT22;21379;50.962;6.960;2022-12-26T15:15:32;9.20;99.90
35246;DHT22;21379;50.962;6.960;2022-12-26T15:18:49;9.20;99.90
35246;DHT22;21379;50.962;6.960;2022-12-26T15:21:45;9.20;99.90
35246;DHT22;21379;50.962;6.960;2022-12-26T15:24:32;9.10;99.90
35246;DHT22;21379;50.962;6.960;2022-12-26T15:27:24;9.00;99.90
35246;DHT22;21379;50.962;6.960;2022-12-26T15:30:09;9.00;99.90
35246;DHT22;21379;50.962;6.960;2022-12-26T15:32:45;9.00;99.90
35246;DHT22;21379;50.962;6.960;2022-12-26T15:35:20;9.00;99.90
35246;DHT22;21379;50.962;6.960;2022-12-26T15:40:44;8.90;99.90
35246;DHT22;21379;50.962;6.960;2022-12-26T15:43:32;8.90;99.90
35246;DHT22;21379;50.962;6.960;2022-12-26T15:46:07;8.80;99.90
35246;DHT22;21379;50.962;6.960;2022-12-26T15:48:45;8.80;99.90
35246;DHT22;21379;50.962;6.960;2022-12-26T15:51:23;8.80;99.90
35246;DHT22;21379;50.962;6.960;2022-12-26T15:53:59;8.70;99.90
35246;DHT22;21379;50.962;6.960;2022-12-26T15:56:51;8.70;99.90
35246;DHT22;21379;50.962;6.960;2022-12-26T15:59:45;8.70;99.90
35246;DHT22;21379;50.962;6.960;2022-12-26T16:02:32;8.70;99.90
35246;DHT22;21379;50.962;6.960;2022-12-26T16:05:18;8.70;99.90
35246;DHT22;21379;50.962;6.960;2022-12-26T16:07:54;8.70;99.90
35246;DHT22;21379;50.962;6.960;2022-12-26T16:10:29;8.70;99.90
35246;DHT22;21379;50.962;6.960;2022-12-26T16:12:58;8.60;99.90
35246;DHT22;21379;50.962;6.960;2022-12-26T16:15:27;8.60;99.90
35246;DHT22;21379;50.962;6.960;2022-12-26T16:18:11;8.60;99.90
35246;DHT22;21379;50.962;6.960;2022-12-26T16:20:39;8.60;99.90
35246;DHT22;21379;50.962;6.960;2022-12-26T16:23:28;8.60;99.90
35246;DHT22;21379;50.962;6.960;2022-12-26T16:25:57;8.60;99.90
35246;DHT22;21379;50.962;6.960;2022-12-26T16:28:34;8.50;99.90
35246;DHT22;21379;50.962;6.960;2022-12-26T16:31:02;8.60;99.90
35246;DHT22;21379;50.962;6.960;2022-12-26T16:33:31;8.50;99.90
35246;DHT22;21379;50.962;6.960;2022-12-26T16:36:00;8.50;99.90
35246;DHT22;21379;50.962;6.960;2022-12-26T16:38:29;8.50;99.90
35246;DHT22;21379;50.962;6.960;2022-12-26T16:40:57;8.50;99.90
35246;DHT22;21379;50.962;6.960;2022-12-26T16:43:26;8.40;99.90
35246;DHT22;21379;50.962;6.960;2022-12-26T16:45:56;8.40;99.90
35246;DHT22;21379;50.962;6.960;2022-12-26T16:48:26;8.30;99.90
35246;DHT22;21379;50.962;6.960;2022-12-26T16:50:55;8.30;99.90